Valiant — WCY6766 — position and weather

sailwx.info

Track history (hours):
 
Tides and Currents Weather Stations Pressure Air Temp Water Temp Dewpoint Dewpoint Depression Visibility Wind Speed Wind Dir Waves Ship Positions

Valiant

Owner: PENN MARITIME INC, SEATTLE, WA. More information available from US FCC via Universal Licensing System and Coast Guard Vessel Documentation Center.

Last reported at 2016-May-29 09:06 UTC. Time now 2016-May-29 11:32 UTC.
Position N 29°40' W 089°58'.

Length 172 m; draft 6.7 m.

Type: Tanker. MMSI: 369350000.

Date/timePositionNaut miles runAvg speedWind from/ knotsBaromVisibWave heightAir tempDewpointWater temp
2016-May-29 09:06N 29°40' W 089°58'712.6
2016-May-29 08:33N 29°46' W 090°01'10 9.6
2016-May-29 07:33N 29°54' W 089°54'10 9.7
2016-May-29 06:33N 29°55' W 090°05'8 0.2
2016-May-27 17:31N 29°58' W 090°14'4 4.2
2016-May-27 16:33N 29°57' W 090°10'4 4.2
2016-May-27 15:33N 29°55' W 090°06'5 4.6
2016-May-27 14:33N 29°57' W 090°01'7 5.0
2016-May-27 13:07N 29°52' W 089°55'3 5.7
2016-May-27 12:33N 29°53' W 089°58'185 4.6
2016-May-25 20:26N 28°29' W 093°07'11 8.7
2016-May-25 19:11N 28°38' W 093°15'23 8.9
2016-May-25 16:33N 28°56' W 093°31'11 8.9
2016-May-25 15:17N 29°05' W 093°38'39 8.0
2016-May-25 10:23N 29°43' W 093°51'5 0.1
2016-May-23 17:20N 29°46' W 093°56'51 5.1
2016-May-23 07:16N 29°21' W 094°47'810.5
2016-May-23 06:33N 29°28' W 094°51'1010.0
2016-May-23 05:33N 29°36' W 094°57'9 9.3
2016-May-23 04:33N 29°44' W 095°03'3 0.1
2016-May-21 04:33N 29°45' W 095°06'2 2.2
2016-May-21 03:29N 29°45' W 095°04'6 6.8
2016-May-21 02:33N 29°40' W 094°59'8 7.9
2016-May-21 01:33N 29°33' W 094°54'9 8.4
2016-May-21 00:29N 29°25' W 094°50'  
Track history (hours):
 
Tides and Currents Weather Stations Pressure Air Temp Water Temp Dewpoint Dewpoint Depression Visibility Wind Speed Wind Dir Waves Ship Positions

Valiant

Owner: PENN MARITIME INC, SEATTLE, WA. More information available from US FCC via Universal Licensing System and Coast Guard Vessel Documentation Center.

Last reported at 2016-May-29 09:06 UTC. Time now 2016-May-29 11:32 UTC.
Position N 29°40' W 089°58'.

Length 172 m; draft 6.7 m.

Type: Tanker. MMSI: 369350000.

Date/timePositionNaut miles runAvg speedWind from/ knotsBaromVisibWave heightAir tempDewpointWater temp
2016-May-29 09:06N 29°40' W 089°58'712.6
2016-May-29 08:33N 29°46' W 090°01'10 9.6
2016-May-29 07:33N 29°54' W 089°54'10 9.7
2016-May-29 06:33N 29°55' W 090°05'8 0.2
2016-May-27 17:31N 29°58' W 090°14'4 4.2
2016-May-27 16:33N 29°57' W 090°10'4 4.2
2016-May-27 15:33N 29°55' W 090°06'5 4.6
2016-May-27 14:33N 29°57' W 090°01'7 5.0
2016-May-27 13:07N 29°52' W 089°55'3 5.7
2016-May-27 12:33N 29°53' W 089°58'185 4.6
2016-May-25 20:26N 28°29' W 093°07'11 8.7
2016-May-25 19:11N 28°38' W 093°15'23 8.9
2016-May-25 16:33N 28°56' W 093°31'11 8.9
2016-May-25 15:17N 29°05' W 093°38'39 8.0
2016-May-25 10:23N 29°43' W 093°51'5 0.1
2016-May-23 17:20N 29°46' W 093°56'51 5.1
2016-May-23 07:16N 29°21' W 094°47'810.5
2016-May-23 06:33N 29°28' W 094°51'1010.0
2016-May-23 05:33N 29°36' W 094°57'9 9.3
2016-May-23 04:33N 29°44' W 095°03'3 0.1
2016-May-21 04:33N 29°45' W 095°06'2 2.2
2016-May-21 03:29N 29°45' W 095°04'6 6.8
2016-May-21 02:33N 29°40' W 094°59'8 7.9
2016-May-21 01:33N 29°33' W 094°54'9 8.4
2016-May-21 00:29N 29°25' W 094°50'  

Dump ship's entire track history